sensor_id;sensor_type;location;lat;lon;timestamp;temperature;humidity
56478;DHT22;42382;53.210;5.772;2024-03-22T00:00:20;10.00;91.00
56478;DHT22;42382;53.210;5.772;2024-03-22T00:02:49;10.00;91.10
56478;DHT22;42382;53.210;5.772;2024-03-22T00:05:15;10.00;91.20
56478;DHT22;42382;53.210;5.772;2024-03-22T00:07:42;10.00;91.20
56478;DHT22;42382;53.210;5.772;2024-03-22T00:10:07;10.00;91.20
56478;DHT22;42382;53.210;5.772;2024-03-22T00:12:33;10.10;91.20
56478;DHT22;42382;53.210;5.772;2024-03-22T00:14:58;10.10;91.20
56478;DHT22;42382;53.210;5.772;2024-03-22T00:17:24;10.10;91.20
56478;DHT22;42382;53.210;5.772;2024-03-22T00:19:49;10.10;91.30
56478;DHT22;42382;53.210;5.772;2024-03-22T00:22:15;10.20;91.40
56478;DHT22;42382;53.210;5.772;2024-03-22T00:24:41;10.20;91.50
56478;DHT22;42382;53.210;5.772;2024-03-22T00:27:07;10.10;91.50
56478;DHT22;42382;53.210;5.772;2024-03-22T00:29:32;10.10;91.60
56478;DHT22;42382;53.210;5.772;2024-03-22T00:31:58;10.10;91.60
56478;DHT22;42382;53.210;5.772;2024-03-22T00:34:24;10.20;91.60
56478;DHT22;42382;53.210;5.772;2024-03-22T00:36:49;10.20;91.70
56478;DHT22;42382;53.210;5.772;2024-03-22T00:39:16;10.20;91.60
56478;DHT22;42382;53.210;5.772;2024-03-22T00:41:42;10.20;91.70
56478;DHT22;42382;53.210;5.772;2024-03-22T00:44:08;10.20;91.90
56478;DHT22;42382;53.210;5.772;2024-03-22T00:46:33;10.20;91.90
56478;DHT22;42382;53.210;5.772;2024-03-22T00:48:59;10.20;91.90
56478;DHT22;42382;53.210;5.772;2024-03-22T00:51:28;10.30;91.90
56478;DHT22;42382;53.210;5.772;2024-03-22T00:53:53;10.30;92.00
56478;DHT22;42382;53.210;5.772;2024-03-22T00:56:19;10.30;91.90
56478;DHT22;42382;53.210;5.772;2024-03-22T00:58:45;10.30;92.10
56478;DHT22;42382;53.210;5.772;2024-03-22T01:01:11;10.30;92.00
56478;DHT22;42382;53.210;5.772;2024-03-22T01:03:36;10.30;92.10
56478;DHT22;42382;53.210;5.772;2024-03-22T01:06:02;10.30;92.20
56478;DHT22;42382;53.210;5.772;2024-03-22T01:08:28;10.30;92.30
56478;DHT22;42382;53.210;5.772;2024-03-22T01:10:55;10.30;92.30
56478;DHT22;42382;53.210;5.772;2024-03-22T01:13:20;10.30;92.30
56478;DHT22;42382;53.210;5.772;2024-03-22T01:15:46;10.30;92.30
56478;DHT22;42382;53.210;5.772;2024-03-22T01:18:12;10.30;92.40
56478;DHT22;42382;53.210;5.772;2024-03-22T01:20:37;10.40;92.40
56478;DHT22;42382;53.210;5.772;2024-03-22T01:23:03;10.40;92.30
56478;DHT22;42382;53.210;5.772;2024-03-22T01:25:30;10.40;92.30
56478;DHT22;42382;53.210;5.772;2024-03-22T01:27:56;10.40;92.30
56478;DHT22;42382;53.210;5.772;2024-03-22T01:30:22;10.40;92.40
56478;DHT22;42382;53.210;5.772;2024-03-22T01:32:47;10.40;92.40
56478;DHT22;42382;53.210;5.772;2024-03-22T01:35:13;10.40;92.40
56478;DHT22;42382;53.210;5.772;2024-03-22T01:37:38;10.40;92.50
56478;DHT22;42382;53.210;5.772;2024-03-22T01:40:04;10.40;92.50
56478;DHT22;42382;53.210;5.772;2024-03-22T01:42:31;10.40;92.50
56478;DHT22;42382;53.210;5.772;2024-03-22T01:44:56;10.40;92.50
56478;DHT22;42382;53.210;5.772;2024-03-22T01:47:22;10.40;92.50
56478;DHT22;42382;53.210;5.772;2024-03-22T01:49:50;10.40;92.60
56478;DHT22;42382;53.210;5.772;2024-03-22T01:52:16;10.40;92.60
56478;DHT22;42382;53.210;5.772;2024-03-22T01:54:41;10.40;92.60
56478;DHT22;42382;53.210;5.772;2024-03-22T01:57:08;10.40;92.60
56478;DHT22;42382;53.210;5.772;2024-03-22T01:59:34;10.40;92.60
56478;DHT22;42382;53.210;5.772;2024-03-22T02:02:00;10.40;92.50
56478;DHT22;42382;53.210;5.772;2024-03-22T02:04:25;10.40;92.60
56478;DHT22;42382;53.210;5.772;2024-03-22T02:06:51;10.40;92.60
56478;DHT22;42382;53.210;5.772;2024-03-22T02:09:17;10.40;92.60
56478;DHT22;42382;53.210;5.772;2024-03-22T02:11:42;10.40;92.60
56478;DHT22;42382;53.210;5.772;2024-03-22T02:14:08;10.40;92.60
56478;DHT22;42382;53.210;5.772;2024-03-22T02:16:34;10.40;92.60
56478;DHT22;42382;53.210;5.772;2024-03-22T02:18:59;10.30;92.60
56478;DHT22;42382;53.210;5.772;2024-03-22T02:21:25;10.30;92.60
56478;DHT22;42382;53.210;5.772;2024-03-22T02:23:51;10.30;92.50
56478;DHT22;42382;53.210;5.772;2024-03-22T02:26:16;10.30;92.50
56478;DHT22;42382;53.210;5.772;2024-03-22T02:28:42;10.30;92.50
56478;DHT22;42382;53.210;5.772;2024-03-22T02:31:07;10.30;92.50
56478;DHT22;42382;53.210;5.772;2024-03-22T02:33:33;10.30;92.60
56478;DHT22;42382;53.210;5.772;2024-03-22T02:35:59;10.30;92.50
56478;DHT22;42382;53.210;5.772;2024-03-22T02:38:24;10.30;92.60
56478;DHT22;42382;53.210;5.772;2024-03-22T02:40:51;10.30;92.60
56478;DHT22;42382;53.210;5.772;2024-03-22T02:43:17;10.30;92.50
56478;DHT22;42382;53.210;5.772;2024-03-22T02:45:44;10.30;92.60
56478;DHT22;42382;53.210;5.772;2024-03-22T02:48:11;10.30;92.60
56478;DHT22;42382;53.210;5.772;2024-03-22T02:50:37;10.30;92.60
56478;DHT22;42382;53.210;5.772;2024-03-22T02:53:03;10.30;92.70
56478;DHT22;42382;53.210;5.772;2024-03-22T02:55:29;10.30;92.60
56478;DHT22;42382;53.210;5.772;2024-03-22T02:57:58;10.30;92.70
56478;DHT22;42382;53.210;5.772;2024-03-22T03:00:24;10.30;92.60
56478;DHT22;42382;53.210;5.772;2024-03-22T03:02:50;10.30;92.60
56478;DHT22;42382;53.210;5.772;2024-03-22T03:05:16;10.30;92.70
56478;DHT22;42382;53.210;5.772;2024-03-22T03:07:41;10.30;92.70
56478;DHT22;42382;53.210;5.772;2024-03-22T03:10:07;10.30;92.70
56478;DHT22;42382;53.210;5.772;2024-03-22T03:12:33;10.30;92.70
56478;DHT22;42382;53.210;5.772;2024-03-22T03:14:58;10.30;92.70
56478;DHT22;42382;53.210;5.772;2024-03-22T03:17:24;10.30;92.70
56478;DHT22;42382;53.210;5.772;2024-03-22T03:19:50;10.30;92.70
56478;DHT22;42382;53.210;5.772;2024-03-22T03:22:15;10.30;92.70
56478;DHT22;42382;53.210;5.772;2024-03-22T03:24:41;10.30;92.70
56478;DHT22;42382;53.210;5.772;2024-03-22T03:27:07;10.30;92.70
56478;DHT22;42382;53.210;5.772;2024-03-22T03:29:32;10.30;92.80
56478;DHT22;42382;53.210;5.772;2024-03-22T03:31:58;10.30;92.80
56478;DHT22;42382;53.210;5.772;2024-03-22T03:34:24;10.30;92.80
56478;DHT22;42382;53.210;5.772;2024-03-22T03:36:49;10.30;92.80
56478;DHT22;42382;53.210;5.772;2024-03-22T03:39:15;10.30;92.80
56478;DHT22;42382;53.210;5.772;2024-03-22T03:41:41;10.30;92.80
56478;DHT22;42382;53.210;5.772;2024-03-22T03:44:06;10.30;92.80
56478;DHT22;42382;53.210;5.772;2024-03-22T03:46:32;10.30;92.80
56478;DHT22;42382;53.210;5.772;2024-03-22T03:48:58;10.30;92.80
56478;DHT22;42382;53.210;5.772;2024-03-22T03:51:23;10.30;92.80
56478;DHT22;42382;53.210;5.772;2024-03-22T03:53:49;10.30;92.80
56478;DHT22;42382;53.210;5.772;2024-03-22T03:56:14;10.30;92.80
56478;DHT22;42382;53.210;5.772;2024-03-22T03:58:40;10.30;92.80
56478;DHT22;42382;53.210;5.772;2024-03-22T04:01:15;10.30;92.80
56478;DHT22;42382;53.210;5.772;2024-03-22T04:03:41;10.30;92.80
56478;DHT22;42382;53.210;5.772;2024-03-22T04:06:06;10.30;92.80
56478;DHT22;42382;53.210;5.772;2024-03-22T04:08:32;10.30;92.80
56478;DHT22;42382;53.210;5.772;2024-03-22T04:10:58;10.30;92.80
56478;DHT22;42382;53.210;5.772;2024-03-22T04:13:24;10.30;92.80
56478;DHT22;42382;53.210;5.772;2024-03-22T04:15:50;10.30;92.70
56478;DHT22;42382;53.210;5.772;2024-03-22T04:18:16;10.30;92.70
56478;DHT22;42382;53.210;5.772;2024-03-22T04:20:42;10.30;92.70
56478;DHT22;42382;53.210;5.772;2024-03-22T04:23:09;10.30;92.70
56478;DHT22;42382;53.210;5.772;2024-03-22T04:25:35;10.30;92.70
56478;DHT22;42382;53.210;5.772;2024-03-22T04:28:00;10.30;92.60
56478;DHT22;42382;53.210;5.772;2024-03-22T04:30:26;10.30;92.60
56478;DHT22;42382;53.210;5.772;2024-03-22T04:32:51;10.30;92.50
56478;DHT22;42382;53.210;5.772;2024-03-22T04:35:17;10.40;92.50
56478;DHT22;42382;53.210;5.772;2024-03-22T04:37:45;10.30;92.50
56478;DHT22;42382;53.210;5.772;2024-03-22T04:40:11;10.40;92.50
56478;DHT22;42382;53.210;5.772;2024-03-22T04:42:37;10.30;92.50
56478;DHT22;42382;53.210;5.772;2024-03-22T04:45:03;10.40;92.40
56478;DHT22;42382;53.210;5.772;2024-03-22T04:47:29;10.40;92.40
56478;DHT22;42382;53.210;5.772;2024-03-22T04:49:54;10.30;92.40
56478;DHT22;42382;53.210;5.772;2024-03-22T04:52:20;10.30;92.40
56478;DHT22;42382;53.210;5.772;2024-03-22T04:54:46;10.30;92.30
56478;DHT22;42382;53.210;5.772;2024-03-22T04:57:13;10.40;92.30
56478;DHT22;42382;53.210;5.772;2024-03-22T04:59:38;10.30;92.20
56478;DHT22;42382;53.210;5.772;2024-03-22T05:02:04;10.40;92.20
56478;DHT22;42382;53.210;5.772;2024-03-22T05:04:30;10.30;92.00
56478;DHT22;42382;53.210;5.772;2024-03-22T05:06:55;10.30;92.10
56478;DHT22;42382;53.210;5.772;2024-03-22T05:09:27;10.30;92.00
56478;DHT22;42382;53.210;5.772;2024-03-22T05:11:52;10.30;92.10
56478;DHT22;42382;53.210;5.772;2024-03-22T05:14:22;10.30;92.10
56478;DHT22;42382;53.210;5.772;2024-03-22T05:16:48;10.30;92.20
56478;DHT22;42382;53.210;5.772;2024-03-22T05:19:13;10.20;92.20
56478;DHT22;42382;53.210;5.772;2024-03-22T05:21:39;10.20;92.40
56478;DHT22;42382;53.210;5.772;2024-03-22T05:24:04;10.20;92.40
56478;DHT22;42382;53.210;5.772;2024-03-22T05:26:30;10.10;92.40
56478;DHT22;42382;53.210;5.772;2024-03-22T05:29:01;10.10;92.50
56478;DHT22;42382;53.210;5.772;2024-03-22T05:31:28;10.10;92.60
56478;DHT22;42382;53.210;5.772;2024-03-22T05:33:53;10.10;92.60
56478;DHT22;42382;53.210;5.772;2024-03-22T05:36:22;10.10;92.90
56478;DHT22;42382;53.210;5.772;2024-03-22T05:38:48;10.00;92.80
56478;DHT22;42382;53.210;5.772;2024-03-22T05:41:13;10.00;92.80
56478;DHT22;42382;53.210;5.772;2024-03-22T05:43:39;10.00;92.90
56478;DHT22;42382;53.210;5.772;2024-03-22T05:46:04;10.00;92.90
56478;DHT22;42382;53.210;5.772;2024-03-22T05:48:30;10.00;92.90
56478;DHT22;42382;53.210;5.772;2024-03-22T05:50:55;9.90;93.00
56478;DHT22;42382;53.210;5.772;2024-03-22T05:53:24;9.90;93.00
56478;DHT22;42382;53.210;5.772;2024-03-22T05:55:49;9.90;93.10
56478;DHT22;42382;53.210;5.772;2024-03-22T05:58:15;9.90;93.20
56478;DHT22;42382;53.210;5.772;2024-03-22T06:00:40;9.90;93.20
56478;DHT22;42382;53.210;5.772;2024-03-22T06:03:06;9.90;93.30
56478;DHT22;42382;53.210;5.772;2024-03-22T06:05:33;9.80;93.30
56478;DHT22;42382;53.210;5.772;2024-03-22T06:07:59;9.80;93.40
56478;DHT22;42382;53.210;5.772;2024-03-22T06:10:24;9.80;93.40
56478;DHT22;42382;53.210;5.772;2024-03-22T06:12:50;9.80;93.30
56478;DHT22;42382;53.210;5.772;2024-03-22T06:15:15;9.80;93.40
56478;DHT22;42382;53.210;5.772;2024-03-22T06:17:41;9.80;93.50
56478;DHT22;42382;53.210;5.772;2024-03-22T06:20:08;9.80;93.50
56478;DHT22;42382;53.210;5.772;2024-03-22T06:22:35;9.80;93.50
56478;DHT22;42382;53.210;5.772;2024-03-22T06:25:01;9.80;93.50
56478;DHT22;42382;53.210;5.772;2024-03-22T06:27:26;9.80;93.50
56478;DHT22;42382;53.210;5.772;2024-03-22T06:29:52;9.80;93.50
56478;DHT22;42382;53.210;5.772;2024-03-22T06:32:18;9.80;93.60
56478;DHT22;42382;53.210;5.772;2024-03-22T06:34:43;9.80;93.70
56478;DHT22;42382;53.210;5.772;2024-03-22T06:37:09;9.80;93.80
56478;DHT22;42382;53.210;5.772;2024-03-22T06:39:35;9.80;93.90
56478;DHT22;42382;53.210;5.772;2024-03-22T06:42:00;9.80;93.80
56478;DHT22;42382;53.210;5.772;2024-03-22T06:44:26;9.70;93.90
56478;DHT22;42382;53.210;5.772;2024-03-22T06:46:52;9.70;94.00
56478;DHT22;42382;53.210;5.772;2024-03-22T06:49:17;9.70;94.10
56478;DHT22;42382;53.210;5.772;2024-03-22T06:51:43;9.70;94.10
56478;DHT22;42382;53.210;5.772;2024-03-22T06:54:08;9.80;94.10
56478;DHT22;42382;53.210;5.772;2024-03-22T06:56:34;9.70;94.10
56478;DHT22;42382;53.210;5.772;2024-03-22T06:59:01;9.70;94.10
56478;DHT22;42382;53.210;5.772;2024-03-22T07:01:26;9.70;94.20
56478;DHT22;42382;53.210;5.772;2024-03-22T07:03:52;9.80;94.10
56478;DHT22;42382;53.210;5.772;2024-03-22T07:06:18;9.70;94.10
56478;DHT22;42382;53.210;5.772;2024-03-22T07:08:43;9.70;94.20
56478;DHT22;42382;53.210;5.772;2024-03-22T07:11:09;9.70;94.30
56478;DHT22;42382;53.210;5.772;2024-03-22T07:13:35;9.60;94.30
56478;DHT22;42382;53.210;5.772;2024-03-22T07:16:01;9.70;94.40
56478;DHT22;42382;53.210;5.772;2024-03-22T07:18:26;9.70;94.50
56478;DHT22;42382;53.210;5.772;2024-03-22T07:20:52;9.70;94.40
56478;DHT22;42382;53.210;5.772;2024-03-22T07:23:18;9.70;94.40
56478;DHT22;42382;53.210;5.772;2024-03-22T07:25:43;9.70;94.40
56478;DHT22;42382;53.210;5.772;2024-03-22T07:28:11;9.70;94.50
56478;DHT22;42382;53.210;5.772;2024-03-22T07:30:37;9.70;94.40
56478;DHT22;42382;53.210;5.772;2024-03-22T07:33:03;9.70;94.50
56478;DHT22;42382;53.210;5.772;2024-03-22T07:35:29;9.60;94.50
56478;DHT22;42382;53.210;5.772;2024-03-22T07:37:54;9.70;94.60
56478;DHT22;42382;53.210;5.772;2024-03-22T07:40:20;9.70;94.60
56478;DHT22;42382;53.210;5.772;2024-03-22T07:42:46;9.60;94.60
56478;DHT22;42382;53.210;5.772;2024-03-22T07:45:11;9.70;94.60
56478;DHT22;42382;53.210;5.772;2024-03-22T07:47:37;9.70;94.60
56478;DHT22;42382;53.210;5.772;2024-03-22T07:50:04;9.70;94.50
56478;DHT22;42382;53.210;5.772;2024-03-22T07:52:29;9.70;94.60
56478;DHT22;42382;53.210;5.772;2024-03-22T07:54:55;9.70;94.50
56478;DHT22;42382;53.210;5.772;2024-03-22T07:57:21;9.70;94.60
56478;DHT22;42382;53.210;5.772;2024-03-22T07:59:48;9.70;94.60
56478;DHT22;42382;53.210;5.772;2024-03-22T08:02:13;9.70;94.50
56478;DHT22;42382;53.210;5.772;2024-03-22T08:04:39;9.70;94.60
56478;DHT22;42382;53.210;5.772;2024-03-22T08:07:05;9.70;94.50
56478;DHT22;42382;53.210;5.772;2024-03-22T08:09:31;9.70;94.60
56478;DHT22;42382;53.210;5.772;2024-03-22T08:11:57;9.70;94.60
56478;DHT22;42382;53.210;5.772;2024-03-22T08:14:23;9.70;94.60
56478;DHT22;42382;53.210;5.772;2024-03-22T08:16:48;9.70;94.60
56478;DHT22;42382;53.210;5.772;2024-03-22T08:19:14;9.70;94.60
56478;DHT22;42382;53.210;5.772;2024-03-22T08:21:39;9.70;94.60
56478;DHT22;42382;53.210;5.772;2024-03-22T08:24:05;9.80;94.60
56478;DHT22;42382;53.210;5.772;2024-03-22T08:26:31;9.80;94.70
56478;DHT22;42382;53.210;5.772;2024-03-22T08:28:56;9.80;94.60
56478;DHT22;42382;53.210;5.772;2024-03-22T08:31:22;9.80;94.60
56478;DHT22;42382;53.210;5.772;2024-03-22T08:33:51;9.80;94.60
56478;DHT22;42382;53.210;5.772;2024-03-22T08:36:17;9.80;94.60
56478;DHT22;42382;53.210;5.772;2024-03-22T08:38:42;9.80;94.60
56478;DHT22;42382;53.210;5.772;2024-03-22T08:41:08;9.80;94.60
56478;DHT22;42382;53.210;5.772;2024-03-22T08:43:33;9.80;94.60
56478;DHT22;42382;53.210;5.772;2024-03-22T08:45:59;9.80;94.60
56478;DHT22;42382;53.210;5.772;2024-03-22T08:48:24;9.80;94.60
56478;DHT22;42382;53.210;5.772;2024-03-22T08:50:50;9.80;94.60
56478;DHT22;42382;53.210;5.772;2024-03-22T08:53:16;9.80;94.60
56478;DHT22;42382;53.210;5.772;2024-03-22T08:55:46;9.80;94.60
56478;DHT22;42382;53.210;5.772;2024-03-22T08:58:13;9.80;94.70
56478;DHT22;42382;53.210;5.772;2024-03-22T09:00:41;9.80;94.70
56478;DHT22;42382;53.210;5.772;2024-03-22T09:03:07;9.80;94.60
56478;DHT22;42382;53.210;5.772;2024-03-22T09:05:33;9.70;94.60
56478;DHT22;42382;53.210;5.772;2024-03-22T09:07:59;9.80;94.70
56478;DHT22;42382;53.210;5.772;2024-03-22T09:10:25;9.80;94.60
56478;DHT22;42382;53.210;5.772;2024-03-22T09:12:51;9.80;94.70
56478;DHT22;42382;53.210;5.772;2024-03-22T09:15:17;9.80;94.70
56478;DHT22;42382;53.210;5.772;2024-03-22T09:17:43;9.80;94.70
56478;DHT22;42382;53.210;5.772;2024-03-22T09:20:09;9.80;94.70
56478;DHT22;42382;53.210;5.772;2024-03-22T09:22:35;9.80;94.70
56478;DHT22;42382;53.210;5.772;2024-03-22T09:25:00;9.70;94.70
56478;DHT22;42382;53.210;5.772;2024-03-22T09:27:26;9.80;94.70
56478;DHT22;42382;53.210;5.772;2024-03-22T09:29:51;9.80;94.70
56478;DHT22;42382;53.210;5.772;2024-03-22T09:32:18;9.80;94.70
56478;DHT22;42382;53.210;5.772;2024-03-22T09:34:44;9.80;94.80
56478;DHT22;42382;53.210;5.772;2024-03-22T09:37:09;9.80;94.80
56478;DHT22;42382;53.210;5.772;2024-03-22T09:39:35;9.80;94.70
56478;DHT22;42382;53.210;5.772;2024-03-22T09:42:01;9.80;94.70
56478;DHT22;42382;53.210;5.772;2024-03-22T09:44:30;9.90;94.80
56478;DHT22;42382;53.210;5.772;2024-03-22T09:46:59;9.90;94.80
56478;DHT22;42382;53.210;5.772;2024-03-22T09:49:25;9.90;94.80
56478;DHT22;42382;53.210;5.772;2024-03-22T09:51:51;9.90;94.70
56478;DHT22;42382;53.210;5.772;2024-03-22T09:54:17;9.90;94.70
56478;DHT22;42382;53.210;5.772;2024-03-22T09:56:44;9.90;94.70
56478;DHT22;42382;53.210;5.772;2024-03-22T09:59:12;9.90;94.70
56478;DHT22;42382;53.210;5.772;2024-03-22T10:01:40;10.00;94.80
56478;DHT22;42382;53.210;5.772;2024-03-22T10:04:06;10.00;94.60
56478;DHT22;42382;53.210;5.772;2024-03-22T10:06:31;9.90;94.60
56478;DHT22;42382;53.210;5.772;2024-03-22T10:09:01;9.90;94.60
56478;DHT22;42382;53.210;5.772;2024-03-22T10:11:27;10.00;94.60
56478;DHT22;42382;53.210;5.772;2024-03-22T10:13:52;10.00;94.60
56478;DHT22;42382;53.210;5.772;2024-03-22T10:16:20;10.00;94.60
56478;DHT22;42382;53.210;5.772;2024-03-22T10:18:46;10.00;94.60
56478;DHT22;42382;53.210;5.772;2024-03-22T10:21:17;10.10;94.60
56478;DHT22;42382;53.210;5.772;2024-03-22T10:23:43;10.10;94.50
56478;DHT22;42382;53.210;5.772;2024-03-22T10:26:10;10.10;94.50
56478;DHT22;42382;53.210;5.772;2024-03-22T10:28:35;10.00;94.50
56478;DHT22;42382;53.210;5.772;2024-03-22T10:31:01;10.00;94.40
56478;DHT22;42382;53.210;5.772;2024-03-22T10:33:28;10.00;94.40
56478;DHT22;42382;53.210;5.772;2024-03-22T10:35:54;10.00;94.40
56478;DHT22;42382;53.210;5.772;2024-03-22T10:38:21;10.10;94.50
56478;DHT22;42382;53.210;5.772;2024-03-22T10:40:47;10.10;94.50
56478;DHT22;42382;53.210;5.772;2024-03-22T10:43:17;10.20;94.40
56478;DHT22;42382;53.210;5.772;2024-03-22T10:45:42;10.20;94.40
56478;DHT22;42382;53.210;5.772;2024-03-22T10:48:10;10.20;94.40
56478;DHT22;42382;53.210;5.772;2024-03-22T10:50:39;10.20;94.40
56478;DHT22;42382;53.210;5.772;2024-03-22T10:53:09;10.20;94.40
56478;DHT22;42382;53.210;5.772;2024-03-22T10:55:38;10.20;94.20
56478;DHT22;42382;53.210;5.772;2024-03-22T10:58:06;10.20;94.30
56478;DHT22;42382;53.210;5.772;2024-03-22T11:00:35;10.20;94.30
56478;DHT22;42382;53.210;5.772;2024-03-22T11:03:02;10.20;94.20
56478;DHT22;42382;53.210;5.772;2024-03-22T11:05:28;10.20;94.10
56478;DHT22;42382;53.210;5.772;2024-03-22T11:08:05;10.20;94.10
56478;DHT22;42382;53.210;5.772;2024-03-22T11:10:31;10.30;94.10
56478;DHT22;42382;53.210;5.772;2024-03-22T11:13:01;10.30;94.10
56478;DHT22;42382;53.210;5.772;2024-03-22T11:15:28;10.40;94.10
56478;DHT22;42382;53.210;5.772;2024-03-22T11:17:54;10.40;94.00
56478;DHT22;42382;53.210;5.772;2024-03-22T11:20:20;10.50;94.00
56478;DHT22;42382;53.210;5.772;2024-03-22T11:22:46;10.40;93.70
56478;DHT22;42382;53.210;5.772;2024-03-22T11:25:11;10.50;93.70
56478;DHT22;42382;53.210;5.772;2024-03-22T11:27:37;10.40;93.30
56478;DHT22;42382;53.210;5.772;2024-03-22T11:30:03;10.50;93.30
56478;DHT22;42382;53.210;5.772;2024-03-22T11:32:29;10.50;93.30
56478;DHT22;42382;53.210;5.772;2024-03-22T11:34:56;10.60;92.90
56478;DHT22;42382;53.210;5.772;2024-03-22T11:37:21;10.60;92.90
56478;DHT22;42382;53.210;5.772;2024-03-22T11:39:48;10.60;92.60
56478;DHT22;42382;53.210;5.772;2024-03-22T11:42:15;10.60;92.50
56478;DHT22;42382;53.210;5.772;2024-03-22T11:44:41;10.60;92.30
56478;DHT22;42382;53.210;5.772;2024-03-22T11:47:08;10.60;92.30
56478;DHT22;42382;53.210;5.772;2024-03-22T11:49:34;10.70;92.10
56478;DHT22;42382;53.210;5.772;2024-03-22T11:52:00;10.70;92.10
56478;DHT22;42382;53.210;5.772;2024-03-22T11:54:26;10.80;92.10
56478;DHT22;42382;53.210;5.772;2024-03-22T11:56:51;10.80;92.00
56478;DHT22;42382;53.210;5.772;2024-03-22T11:59:20;10.90;91.80
56478;DHT22;42382;53.210;5.772;2024-03-22T12:01:46;10.90;91.20
56478;DHT22;42382;53.210;5.772;2024-03-22T12:04:12;10.90;91.20
56478;DHT22;42382;53.210;5.772;2024-03-22T12:06:44;10.90;91.10
56478;DHT22;42382;53.210;5.772;2024-03-22T12:09:10;11.00;90.80
56478;DHT22;42382;53.210;5.772;2024-03-22T12:11:38;11.10;91.00
56478;DHT22;42382;53.210;5.772;2024-03-22T12:14:03;11.10;90.50
56478;DHT22;42382;53.210;5.772;2024-03-22T12:16:29;11.20;90.70
56478;DHT22;42382;53.210;5.772;2024-03-22T12:18:54;11.20;90.40
56478;DHT22;42382;53.210;5.772;2024-03-22T12:21:20;11.20;90.10
56478;DHT22;42382;53.210;5.772;2024-03-22T12:23:46;11.20;90.10
56478;DHT22;42382;53.210;5.772;2024-03-22T12:26:11;11.30;90.00
56478;DHT22;42382;53.210;5.772;2024-03-22T12:28:37;11.20;89.70
56478;DHT22;42382;53.210;5.772;2024-03-22T12:31:04;11.30;89.80
56478;DHT22;42382;53.210;5.772;2024-03-22T12:33:30;11.30;89.20
56478;DHT22;42382;53.210;5.772;2024-03-22T12:35:55;11.20;89.20
56478;DHT22;42382;53.210;5.772;2024-03-22T12:38:21;11.30;89.50
56478;DHT22;42382;53.210;5.772;2024-03-22T12:40:46;11.30;89.30
56478;DHT22;42382;53.210;5.772;2024-03-22T12:43:12;11.20;89.10
56478;DHT22;42382;53.210;5.772;2024-03-22T12:45:38;11.20;89.10
56478;DHT22;42382;53.210;5.772;2024-03-22T12:48:04;11.10;88.90
56478;DHT22;42382;53.210;5.772;2024-03-22T12:50:30;11.00;89.00
56478;DHT22;42382;53.210;5.772;2024-03-22T12:52:56;11.00;88.80
56478;DHT22;42382;53.210;5.772;2024-03-22T12:55:22;11.00;88.70
56478;DHT22;42382;53.210;5.772;2024-03-22T12:57:47;10.90;88.70
56478;DHT22;42382;53.210;5.772;2024-03-22T13:00:13;10.80;88.90
56478;DHT22;42382;53.210;5.772;2024-03-22T13:02:44;10.80;89.20
56478;DHT22;42382;53.210;5.772;2024-03-22T13:05:09;10.70;89.20
56478;DHT22;42382;53.210;5.772;2024-03-22T13:07:35;10.70;89.30
56478;DHT22;42382;53.210;5.772;2024-03-22T13:10:01;10.60;89.30
56478;DHT22;42382;53.210;5.772;2024-03-22T13:12:28;10.60;89.40
56478;DHT22;42382;53.210;5.772;2024-03-22T13:14:56;10.50;89.50
56478;DHT22;42382;53.210;5.772;2024-03-22T13:17:22;10.50;89.70
56478;DHT22;42382;53.210;5.772;2024-03-22T13:19:49;10.50;89.80
56478;DHT22;42382;53.210;5.772;2024-03-22T13:22:14;10.50;89.90
56478;DHT22;42382;53.210;5.772;2024-03-22T13:24:46;10.50;89.90
56478;DHT22;42382;53.210;5.772;2024-03-22T13:27:13;10.50;90.00
56478;DHT22;42382;53.210;5.772;2024-03-22T13:29:39;10.50;89.90
56478;DHT22;42382;53.210;5.772;2024-03-22T13:32:05;10.50;89.90
56478;DHT22;42382;53.210;5.772;2024-03-22T13:34:36;10.50;89.80
56478;DHT22;42382;53.210;5.772;2024-03-22T13:37:03;10.40;89.80
56478;DHT22;42382;53.210;5.772;2024-03-22T13:39:29;10.40;89.60
56478;DHT22;42382;53.210;5.772;2024-03-22T13:41:56;10.30;89.60
56478;DHT22;42382;53.210;5.772;2024-03-22T13:44:22;10.30;89.50
56478;DHT22;42382;53.210;5.772;2024-03-22T13:46:50;10.30;89.70
56478;DHT22;42382;53.210;5.772;2024-03-22T13:49:16;10.30;89.70
56478;DHT22;42382;53.210;5.772;2024-03-22T13:51:42;10.30;89.70
56478;DHT22;42382;53.210;5.772;2024-03-22T13:54:08;10.30;89.20
56478;DHT22;42382;53.210;5.772;2024-03-22T13:56:33;10.30;89.30
56478;DHT22;42382;53.210;5.772;2024-03-22T13:58:59;10.30;88.90
56478;DHT22;42382;53.210;5.772;2024-03-22T14:01:25;10.40;88.90
56478;DHT22;42382;53.210;5.772;2024-03-22T14:03:51;10.40;88.60
56478;DHT22;42382;53.210;5.772;2024-03-22T14:06:16;10.50;88.40
56478;DHT22;42382;53.210;5.772;2024-03-22T14:08:42;10.50;87.90
56478;DHT22;42382;53.210;5.772;2024-03-22T14:11:09;10.60;88.10
56478;DHT22;42382;53.210;5.772;2024-03-22T14:13:35;10.60;88.00
56478;DHT22;42382;53.210;5.772;2024-03-22T14:16:01;10.70;87.80
56478;DHT22;42382;53.210;5.772;2024-03-22T14:18:27;10.70;87.70
56478;DHT22;42382;53.210;5.772;2024-03-22T14:20:53;10.60;87.30
56478;DHT22;42382;53.210;5.772;2024-03-22T14:23:19;10.60;87.30
56478;DHT22;42382;53.210;5.772;2024-03-22T14:25:45;10.70;87.30
56478;DHT22;42382;53.210;5.772;2024-03-22T14:28:13;10.60;87.30
56478;DHT22;42382;53.210;5.772;2024-03-22T14:30:38;10.60;87.30
56478;DHT22;42382;53.210;5.772;2024-03-22T14:33:04;10.60;87.20
56478;DHT22;42382;53.210;5.772;2024-03-22T14:35:30;10.40;86.60
56478;DHT22;42382;53.210;5.772;2024-03-22T14:37:56;10.40;86.80
56478;DHT22;42382;53.210;5.772;2024-03-22T14:40:21;10.40;86.70
56478;DHT22;42382;53.210;5.772;2024-03-22T14:42:47;10.40;86.90
56478;DHT22;42382;53.210;5.772;2024-03-22T14:45:12;10.40;86.80
56478;DHT22;42382;53.210;5.772;2024-03-22T14:47:38;10.40;87.00
56478;DHT22;42382;53.210;5.772;2024-03-22T14:50:05;10.50;87.20
56478;DHT22;42382;53.210;5.772;2024-03-22T14:52:30;10.40;86.80
56478;DHT22;42382;53.210;5.772;2024-03-22T14:54:58;10.40;87.00
56478;DHT22;42382;53.210;5.772;2024-03-22T14:57:24;10.40;86.80
56478;DHT22;42382;53.210;5.772;2024-03-22T14:59:49;10.40;86.60
56478;DHT22;42382;53.210;5.772;2024-03-22T15:02:18;10.50;86.60
56478;DHT22;42382;53.210;5.772;2024-03-22T15:04:43;10.50;86.70
56478;DHT22;42382;53.210;5.772;2024-03-22T15:07:09;10.60;86.70
56478;DHT22;42382;53.210;5.772;2024-03-22T15:09:34;10.60;86.30
56478;DHT22;42382;53.210;5.772;2024-03-22T15:12:00;10.60;86.40
56478;DHT22;42382;53.210;5.772;2024-03-22T15:14:26;10.60;85.60
56478;DHT22;42382;53.210;5.772;2024-03-22T15:16:55;10.60;85.30
56478;DHT22;42382;53.210;5.772;2024-03-22T15:19:21;10.50;85.00
56478;DHT22;42382;53.210;5.772;2024-03-22T15:21:47;10.60;84.90
56478;DHT22;42382;53.210;5.772;2024-03-22T15:24:13;10.60;85.00
56478;DHT22;42382;53.210;5.772;2024-03-22T15:26:39;10.60;84.80